Time;durP1;ratioP1;P1;durP2;ratioP2;P2;SDS_P1;SDS_P2;PMS_P1;PMS_P2;Temp;Humidity;BMP_temperature;BMP_pressure;BME280_temperature;BME280_humidity;BME280_pressure;Samples;Min_cycle;Max_cycle;Signal;HPM_P1;HPM_P2
2021/09/30 00:01:27;;;;;;;9.57;1.20;;;9.30;82.60;;;;;;4935393;29;20064;-72
2021/09/30 00:03:54;;;;;;;8.00;1.08;;;9.30;82.90;;;;;;4933900;29;20048;-72
2021/09/30 00:06:22;;;;;;;6.90;1.00;;;9.20;83.00;;;;;;4935675;29;20055;-72
2021/09/30 00:08:49;;;;;;;6.68;0.98;;;9.20;83.10;;;;;;4935029;29;20051;-72
2021/09/30 00:11:26;;;;;;;9.20;1.10;;;9.10;83.30;;;;;;4935567;29;20055;-72
2021/09/30 00:14:04;;;;;;;4.50;0.98;;;9.00;83.30;;;;;;4918354;29;20052;-72
2021/09/30 00:32:40;;;;;;;9.30;1.25;;;8.70;84.10;;;;;;4920663;29;20058;-72
2021/09/30 00:35:24;;;;;;;7.45;0.73;;;8.70;84.30;;;;;;4938499;29;20058;-71
2021/09/30 00:46:11;;;;;;;10.48;1.13;;;8.50;84.70;;;;;;4921722;29;20047;-72
2021/09/30 02:28:56;;;;;;;9.68;0.90;;;9.40;81.70;;;;;;4844350;29;20058;-72
2021/09/30 02:59:35;;;;;;;7.88;1.00;;;9.30;83.70;;;;;;4902821;29;20395;-72
2021/09/30 03:02:06;;;;;;;9.52;1.08;;;9.30;83.90;;;;;;4919727;29;20055;-72
2021/09/30 03:04:35;;;;;;;6.82;0.95;;;9.30;84.10;;;;;;4919200;29;20056;-72
2021/09/30 03:07:05;;;;;;;6.60;1.13;;;9.20;84.10;;;;;;4919067;29;20043;-72
2021/09/30 03:09:39;;;;;;;9.55;1.70;;;9.20;84.20;;;;;;4918974;29;20051;-71
2021/09/30 03:12:18;;;;;;;8.02;1.27;;;9.20;84.20;;;;;;4935204;29;20418;-72
2021/09/30 03:14:58;;;;;;;7.78;1.30;;;9.20;84.20;;;;;;4921185;29;20057;-72
2021/09/30 03:17:50;;;;;;;3.60;1.02;;;9.20;84.30;;;;;;4918649;29;20058;-72
2021/09/30 03:23:19;;;;;;;7.47;1.00;;;9.20;84.50;;;;;;4919278;29;20051;-72
2021/09/30 03:30:19;;;;;;;8.10;1.10;;;9.10;84.60;;;;;;4935641;29;20050;-72
2021/09/30 03:32:47;;;;;;;5.90;0.77;;;9.10;84.60;;;;;;4917805;29;20058;-72
2021/09/30 03:35:24;;;;;;;7.00;1.10;;;9.10;84.80;;;;;;4919110;29;20059;-72
2021/09/30 03:37:52;;;;;;;9.05;1.02;;;9.10;84.90;;;;;;4935345;29;20052;-72
2021/09/30 03:44:53;;;;;;;4.28;0.80;;;9.00;85.40;;;;;;4935282;29;20469;-72
2021/09/30 03:47:21;;;;;;;9.05;1.08;;;9.00;85.50;;;;;;4918269;29;20406;-72
2021/09/30 03:50:05;;;;;;;9.07;1.10;;;9.00;85.60;;;;;;4917618;29;20060;-72
2021/09/30 03:59:34;;;;;;;8.57;1.30;;;9.00;86.30;;;;;;4939143;29;20028;-71
2021/09/30 04:02:15;;;;;;;7.25;1.10;;;8.90;86.30;;;;;;4922468;29;20069;-71
2021/09/30 04:04:43;;;;;;;6.50;0.95;;;8.90;86.30;;;;;;4937997;29;20052;-71
2021/09/30 04:07:10;;;;;;;10.43;1.55;;;8.90;86.60;;;;;;4922031;29;20052;-72
2021/09/30 04:09:40;;;;;;;10.48;1.30;;;8.90;86.90;;;;;;4922230;29;20055;-72
2021/09/30 04:12:12;;;;;;;8.45;1.27;;;8.90;87.00;;;;;;4921734;29;20409;-72
2021/09/30 04:14:41;;;;;;;7.47;1.40;;;8.80;87.30;;;;;;4937681;29;20067;-71
2021/09/30 04:17:09;;;;;;;13.70;1.67;;;8.80;87.60;;;;;;4921628;29;20489;-71
2021/09/30 04:19:39;;;;;;;8.52;1.50;;;8.80;87.60;;;;;;4921797;29;20059;-71
2021/09/30 04:22:07;;;;;;;9.25;1.35;;;8.80;87.80;;;;;;4937505;29;20039;-71
2021/09/30 04:24:35;;;;;;;9.48;1.10;;;8.80;87.90;;;;;;4921718;29;20051;-71
2021/09/30 04:27:06;;;;;;;7.60;1.17;;;8.80;88.00;;;;;;4921806;29;20059;-71
2021/09/30 04:29:33;;;;;;;13.93;1.50;;;8.80;88.40;;;;;;4920677;29;20059;-71
2021/09/30 04:32:01;;;;;;;8.35;1.70;;;8.80;88.30;;;;;;4920548;29;20045;-71
2021/09/30 04:34:29;;;;;;;7.70;1.40;;;8.80;88.40;;;;;;4904968;29;20062;-71
2021/09/30 04:36:58;;;;;;;11.00;1.40;;;8.80;88.40;;;;;;4921312;29;20051;-71
2021/09/30 04:39:25;;;;;;;11.13;1.50;;;8.80;88.50;;;;;;4921244;29;20048;-71
2021/09/30 04:41:54;;;;;;;11.05;1.45;;;8.80;88.60;;;;;;4904920;29;20055;-71
2021/09/30 04:44:22;;;;;;;7.57;1.48;;;8.80;89.00;;;;;;4921585;29;20489;-70
2021/09/30 04:46:53;;;;;;;10.68;2.00;;;8.90;89.00;;;;;;4921488;29;20040;-71
2021/09/30 04:49:40;;;;;;;6.10;1.20;;;8.80;89.00;;;;;;4937707;29;20059;-71
2021/09/30 04:52:08;;;;;;;10.45;1.55;;;8.80;89.20;;;;;;4920986;29;20043;-71
2021/09/30 04:54:37;;;;;;;6.18;1.45;;;8.80;89.30;;;;;;4920047;29;20051;-71
2021/09/30 04:57:06;;;;;;;9.52;1.50;;;8.90;89.60;;;;;;4920953;29;20055;-71
2021/09/30 04:59:37;;;;;;;10.20;2.08;;;8.90;89.90;;;;;;4921742;29;20059;-71
2021/09/30 05:02:24;;;;;;;8.95;1.42;;;8.90;90.00;;;;;;4936183;29;20414;-71
2021/09/30 05:04:52;;;;;;;11.13;1.67;;;8.90;90.00;;;;;;4938221;29;20490;-71
2021/09/30 05:07:20;;;;;;;10.48;1.65;;;8.90;90.20;;;;;;4905234;29;20070;-71
2021/09/30 05:09:51;;;;;;;10.48;2.15;;;9.00;90.30;;;;;;4920869;29;20408;-71
2021/09/30 05:12:21;;;;;;;11.30;1.52;;;9.00;90.30;;;;;;4904858;29;20059;-70
2021/09/30 05:14:49;;;;;;;10.40;1.92;;;9.00;90.40;;;;;;4905199;29;20066;-71
2021/09/30 05:17:20;;;;;;;11.63;2.05;;;9.00;90.50;;;;;;4921180;29;20047;-71
2021/09/30 05:19:53;;;;;;;11.13;2.33;;;9.00;90.70;;;;;;4920760;29;20056;-70
2021/09/30 05:22:20;;;;;;;11.48;3.10;;;9.00;90.60;;;;;;4920591;29;20401;-70
2021/09/30 05:24:48;;;;;;;10.75;3.00;;;9.10;90.60;;;;;;4920970;29;20051;-69
2021/09/30 05:27:16;;;;;;;20.42;2.50;;;9.10;90.70;;;;;;4920424;29;20055;-70
2021/09/30 05:29:43;;;;;;;6.40;1.90;;;9.10;90.80;;;;;;4936135;29;20480;-70
2021/09/30 05:32:13;;;;;;;5.88;1.90;;;9.10;90.80;;;;;;4920016;29;20355;-70
2021/09/30 05:34:58;;;;;;;12.00;2.75;;;9.10;90.90;;;;;;4904019;29;20333;-71
2021/09/30 05:37:32;;;;;;;15.25;2.83;;;9.20;90.90;;;;;;4920168;29;20047;-70
2021/09/30 05:40:00;;;;;;;6.88;2.17;;;9.20;90.90;;;;;;4919896;29;20052;-71
2021/09/30 05:42:29;;;;;;;8.85;2.50;;;9.20;91.10;;;;;;4935994;29;20044;-70
2021/09/30 05:45:06;;;;;;;9.48;2.72;;;9.20;91.10;;;;;;4919768;29;20055;-70
2021/09/30 05:47:35;;;;;;;6.30;2.45;;;9.30;91.20;;;;;;4920212;29;20048;-72
2021/09/30 05:50:09;;;;;;;8.20;2.45;;;9.30;91.30;;;;;;4919716;29;20054;-72
2021/09/30 05:52:43;;;;;;;10.57;2.60;;;9.30;91.30;;;;;;4920864;29;20047;-71
2021/09/30 05:55:36;;;;;;;7.40;2.10;;;9.30;91.30;;;;;;4935655;29;20063;-71
2021/09/30 05:58:06;;;;;;;6.18;2.55;;;9.30;91.40;;;;;;4918781;29;20059;-71
2021/09/30 06:11:48;;;;;;;6.35;2.20;;;9.40;91.60;;;;;;4862507;29;20061;-71
2021/09/30 06:14:21;;;;;;;8.90;2.58;;;9.40;91.70;;;;;;4877187;29;20073;-71
2021/09/30 06:16:51;;;;;;;9.07;3.15;;;9.40;91.80;;;;;;4862637;29;20057;-71
2021/09/30 06:19:33;;;;;;;7.43;3.40;;;9.40;91.70;;;;;;4859407;29;20065;-72
2021/09/30 06:22:07;;;;;;;15.48;3.15;;;9.50;91.70;;;;;;4859932;29;20536;-70
2021/09/30 06:24:38;;;;;;;8.63;2.72;;;9.50;91.80;;;;;;4859843;29;20061;-71
2021/09/30 06:27:26;;;;;;;8.38;2.53;;;9.50;91.90;;;;;;4843522;29;20058;-71
2021/09/30 06:29:56;;;;;;;10.20;2.85;;;9.60;91.90;;;;;;4828633;29;20180;-71
2021/09/30 06:32:24;;;;;;;10.45;3.25;;;9.60;91.90;;;;;;4843803;29;20060;-71
2021/09/30 06:35:07;;;;;;;10.55;2.90;;;9.60;91.80;;;;;;4859648;29;20069;-71
2021/09/30 06:37:42;;;;;;;15.75;2.90;;;9.60;91.90;;;;;;4843701;29;20061;-71
2021/09/30 06:40:10;;;;;;;11.95;2.70;;;9.70;91.90;;;;;;4843985;29;20081;-71
2021/09/30 06:42:40;;;;;;;14.45;2.55;;;9.70;91.80;;;;;;4828400;29;20045;-71
2021/09/30 06:45:28;;;;;;;14.07;2.40;;;9.80;91.90;;;;;;4858828;29;20065;-71
2021/09/30 06:48:16;;;;;;;9.57;2.08;;;9.80;91.80;;;;;;4877307;29;20074;-71
2021/09/30 06:55:21;;;;;;;10.98;2.13;;;9.80;91.70;;;;;;4916076;29;20051;-71
2021/09/30 06:58:10;;;;;;;14.68;2.40;;;9.90;91.60;;;;;;4917451;29;20055;-71
2021/09/30 07:01:16;;;;;;;17.08;2.92;;;9.90;91.50;;;;;;4858771;29;20058;-71
2021/09/30 07:04:07;;;;;;;10.55;2.10;;;9.90;91.40;;;;;;4859206;29;20153;-71
2021/09/30 07:06:48;;;;;;;10.63;2.10;;;9.90;91.40;;;;;;4842873;29;20057;-71
2021/09/30 07:09:15;;;;;;;14.43;2.47;;;9.90;91.40;;;;;;4843106;29;20061;-71
2021/09/30 07:11:43;;;;;;;7.68;1.88;;;9.90;91.40;;;;;;4827476;29;20049;-70
2021/09/30 07:14:11;;;;;;;10.38;1.80;;;9.90;91.40;;;;;;4843111;29;20150;-71
2021/09/30 07:16:38;;;;;;;9.65;2.03;;;9.90;91.40;;;;;;4858481;29;20511;-71
2021/09/30 07:19:07;;;;;;;8.25;1.92;;;10.00;91.50;;;;;;4858247;29;20069;-71
2021/09/30 07:21:35;;;;;;;6.50;1.73;;;10.00;91.40;;;;;;4861150;29;20093;-71
2021/09/30 07:24:03;;;;;;;9.23;1.98;;;10.00;91.40;;;;;;4876948;29;20073;-71
2021/09/30 07:26:31;;;;;;;5.70;1.35;;;10.00;91.50;;;;;;4876462;29;20052;-71
2021/09/30 07:28:58;;;;;;;8.95;1.65;;;10.10;91.50;;;;;;4877173;29;20061;-72
2021/09/30 07:31:26;;;;;;;12.00;1.70;;;10.10;91.50;;;;;;4876780;29;20427;-72
2021/09/30 07:38:26;;;;;;;11.38;2.00;;;10.20;91.40;;;;;;4935297;29;20028;-71
2021/09/30 07:40:53;;;;;;;9.48;1.60;;;10.20;91.20;;;;;;4934234;29;20059;-72
2021/09/30 07:43:22;;;;;;;9.43;1.75;;;10.30;91.10;;;;;;4918167;29;20401;-72
2021/09/30 07:45:50;;;;;;;12.27;1.52;;;10.30;91.00;;;;;;4935309;29;20409;-71
2021/09/30 07:48:17;;;;;;;12.73;1.90;;;10.40;91.00;;;;;;4935489;29;20431;-70
2021/09/30 07:55:20;;;;;;;11.05;1.30;;;10.50;90.80;;;;;;4935085;29;20036;-71
2021/09/30 07:57:47;;;;;;;6.63;1.15;;;10.60;90.60;;;;;;4934959;29;20063;-71
2021/09/30 08:00:15;;;;;;;10.32;1.50;;;10.70;90.60;;;;;;4935240;29;20054;-72
2021/09/30 08:02:43;;;;;;;5.20;1.13;;;10.70;90.40;;;;;;4935043;29;20343;-72
2021/09/30 08:09:45;;;;;;;10.98;1.50;;;10.80;90.20;;;;;;4917489;29;20040;-72
2021/09/30 08:12:13;;;;;;;8.00;1.17;;;10.90;90.00;;;;;;4935002;29;20232;-72
2021/09/30 08:14:41;;;;;;;11.10;1.33;;;11.00;90.00;;;;;;4917671;29;20055;-72
2021/09/30 08:17:08;;;;;;;12.95;1.35;;;11.10;89.90;;;;;;4917644;29;20052;-71
2021/09/30 08:19:36;;;;;;;6.00;1.20;;;11.10;89.80;;;;;;4933564;29;20064;-72
2021/09/30 08:22:04;;;;;;;5.43;1.33;;;11.10;89.90;;;;;;4935147;29;20055;-72
2021/09/30 08:24:31;;;;;;;10.38;1.60;;;11.20;89.70;;;;;;4918011;29;20051;-72
2021/09/30 08:26:59;;;;;;;7.85;1.50;;;11.20;89.70;;;;;;4934856;29;20343;-72
2021/09/30 08:29:27;;;;;;;13.63;1.58;;;11.30;89.70;;;;;;4934710;29;20059;-72
2021/09/30 08:31:55;;;;;;;10.60;1.30;;;11.30;89.70;;;;;;4935156;29;20044;-72
2021/09/30 08:34:23;;;;;;;9.07;1.40;;;11.30;89.70;;;;;;4935044;29;20181;-72
2021/09/30 08:41:26;;;;;;;8.27;1.10;;;11.40;89.40;;;;;;4938106;29;20036;-72
2021/09/30 08:43:54;;;;;;;8.23;1.33;;;11.50;89.30;;;;;;4905154;29;20048;-72
2021/09/30 08:46:21;;;;;;;10.68;1.27;;;11.50;89.40;;;;;;4938078;29;20047;-72
2021/09/30 08:48:49;;;;;;;8.30;1.55;;;11.60;89.40;;;;;;4938546;29;20055;-72
2021/09/30 08:51:17;;;;;;;6.63;1.00;;;11.70;89.20;;;;;;4938443;29;20397;-73
2021/09/30 08:53:45;;;;;;;8.23;0.98;;;11.70;89.10;;;;;;4921080;29;20047;-72
2021/09/30 08:56:13;;;;;;;7.40;1.13;;;11.70;88.90;;;;;;4938295;29;20051;-72
2021/09/30 08:58:41;;;;;;;9.50;1.30;;;11.80;89.00;;;;;;4938437;29;20044;-71
2021/09/30 09:01:11;;;;;;;5.15;0.90;;;11.80;88.80;;;;;;4938546;29;20048;-72
2021/09/30 09:03:45;;;;;;;7.20;1.67;;;11.80;88.80;;;;;;4937822;29;20046;-72
2021/09/30 09:06:35;;;;;;;12.38;1.60;;;11.90;88.80;;;;;;4920463;29;20066;-71
2021/09/30 09:09:25;;;;;;;6.00;1.10;;;11.90;88.90;;;;;;4921093;29;20358;-72
2021/09/30 09:11:55;;;;;;;7.75;1.30;;;12.00;88.80;;;;;;4904692;29;20052;-73
2021/09/30 09:14:31;;;;;;;5.25;0.93;;;12.20;88.50;;;;;;4938307;29;20363;-71
2021/09/30 09:17:03;;;;;;;14.65;1.88;;;12.30;88.20;;;;;;4938445;29;20048;-72
2021/09/30 09:19:49;;;;;;;7.38;1.27;;;12.40;88.10;;;;;;4920225;29;20058;-72
2021/09/30 09:22:24;;;;;;;9.00;1.50;;;12.60;87.90;;;;;;4937823;29;20056;-72
2021/09/30 09:25:01;;;;;;;9.07;1.38;;;12.70;87.40;;;;;;4921387;29;20059;-72
2021/09/30 09:27:44;;;;;;;9.85;1.65;;;12.70;87.60;;;;;;4937791;29;20055;-72
2021/09/30 09:30:49;;;;;;;5.72;0.98;;;12.90;87.10;;;;;;4919886;29;20052;-72
2021/09/30 09:33:31;;;;;;;7.38;1.10;;;13.00;86.70;;;;;;4937845;29;20129;-72
2021/09/30 09:36:04;;;;;;;7.65;1.10;;;13.10;86.40;;;;;;4938156;29;20059;-72
2021/09/30 09:38:52;;;;;;;10.73;1.50;;;13.10;86.00;;;;;;4937858;29;20063;-72
2021/09/30 09:41:33;;;;;;;11.73;1.67;;;13.00;86.30;;;;;;4937259;29;20047;-72
2021/09/30 09:44:04;;;;;;;12.90;1.48;;;13.00;86.20;;;;;;4937513;29;20043;-72
2021/09/30 09:46:38;;;;;;;8.43;1.40;;;13.00;86.30;;;;;;4937679;29;20054;-72
2021/09/30 09:49:07;;;;;;;8.23;1.30;;;13.00;86.40;;;;;;4937072;29;20047;-72
2021/09/30 09:51:45;;;;;;;12.38;1.35;;;13.00;86.50;;;;;;4936682;29;20044;-73
2021/09/30 09:54:16;;;;;;;6.65;1.10;;;13.00;86.80;;;;;;4920416;29;20048;-72
2021/09/30 09:56:46;;;;;;;11.77;1.20;;;13.10;86.80;;;;;;4936040;29;20059;-73
2021/09/30 09:59:30;;;;;;;6.35;1.42;;;13.10;86.70;;;;;;4936947;29;20062;-72
2021/09/30 10:01:58;;;;;;;9.40;1.50;;;13.10;86.80;;;;;;4919223;29;20060;-72
2021/09/30 10:04:27;;;;;;;6.97;1.23;;;13.20;86.80;;;;;;4919375;29;20051;-72
2021/09/30 10:06:55;;;;;;;8.05;1.35;;;13.30;86.50;;;;;;4937274;29;20047;-74
2021/09/30 10:09:23;;;;;;;8.43;1.20;;;13.30;86.50;;;;;;4919754;29;20047;-73
2021/09/30 10:11:50;;;;;;;7.05;1.25;;;13.30;86.60;;;;;;4937085;29;20485;-73
2021/09/30 10:14:21;;;;;;;8.80;1.20;;;13.40;86.60;;;;;;4936864;29;20056;-74
2021/09/30 10:16:50;;;;;;;5.90;1.30;;;13.50;86.50;;;;;;4919157;29;20494;-73
2021/09/30 10:19:18;;;;;;;7.68;1.20;;;13.50;86.20;;;;;;4936172;29;20405;-73
2021/09/30 10:21:45;;;;;;;4.95;1.05;;;13.60;86.30;;;;;;4935350;29;20052;-73
2021/09/30 10:24:16;;;;;;;7.40;1.05;;;13.70;86.30;;;;;;4919201;29;20052;-73
2021/09/30 10:26:51;;;;;;;11.15;1.50;;;13.70;86.00;;;;;;4936976;29;20055;-73
2021/09/30 10:29:57;;;;;;;8.43;1.33;;;13.80;86.00;;;;;;4937134;29;20063;-73
2021/09/30 10:32:25;;;;;;;10.10;1.15;;;13.90;86.10;;;;;;4861739;29;20136;-73
2021/09/30 10:34:59;;;;;;;5.45;1.15;;;14.00;85.70;;;;;;4877974;29;20449;-73
2021/09/30 10:37:31;;;;;;;8.65;1.48;;;14.00;85.30;;;;;;4877879;29;20053;-73
2021/09/30 10:40:15;;;;;;;5.20;1.00;;;14.00;85.20;;;;;;4846625;29;20049;-73
2021/09/30 10:42:44;;;;;;;;;;;14.00;85.30;;;;;;4862096;29;20296;-73
2021/09/30 10:45:14;;;;;;;8.52;1.70;;;14.00;85.60;;;;;;4877432;29;19930;-73
2021/09/30 10:47:42;;;;;;;5.50;1.00;;;14.10;85.70;;;;;;4877890;29;20431;-73
2021/09/30 10:50:17;;;;;;;5.22;1.20;;;14.00;85.90;;;;;;4861753;29;20053;-73
2021/09/30 10:52:53;;;;;;;5.32;1.17;;;14.10;85.90;;;;;;4877225;29;20053;-73
2021/09/30 10:55:24;;;;;;;5.65;1.17;;;14.10;86.00;;;;;;4877800;29;20458;-73
2021/09/30 10:57:54;;;;;;;3.45;0.75;;;14.20;86.20;;;;;;4878256;29;20052;-73
2021/09/30 11:00:21;;;;;;;8.20;1.13;;;14.20;86.10;;;;;;4877431;29;20065;-73
2021/09/30 11:03:10;;;;;;;2.92;0.82;;;14.30;86.00;;;;;;4893257;29;20062;-73
2021/09/30 11:05:59;;;;;;;6.38;1.00;;;14.30;86.00;;;;;;4935929;29;20066;-73
2021/09/30 11:08:33;;;;;;;4.45;0.65;;;14.40;85.80;;;;;;4935140;29;20386;-73
2021/09/30 11:11:01;;;;;;;5.32;0.60;;;14.40;85.70;;;;;;4936454;29;20473;-73
2021/09/30 11:13:30;;;;;;;3.42;0.52;;;14.50;85.60;;;;;;4937172;29;20058;-72
2021/09/30 11:16:02;;;;;;;3.47;0.73;;;14.50;85.70;;;;;;4937075;29;20051;-73
2021/09/30 11:18:39;;;;;;;1.88;0.50;;;14.70;85.80;;;;;;4935758;29;20062;-73
2021/09/30 11:21:29;;;;;;;1.50;0.47;;;14.80;85.60;;;;;;4935549;29;20051;-78
2021/09/30 11:24:01;;;;;;;0.52;0.20;;;15.00;85.10;;;;;;4935722;29;20366;-72
2021/09/30 11:26:48;;;;;;;1.33;0.40;;;15.10;84.60;;;;;;4935575;29;20170;-72
2021/09/30 11:29:22;;;;;;;2.85;0.35;;;15.30;84.00;;;;;;4919225;29;20044;-73
2021/09/30 11:31:58;;;;;;;1.08;0.30;;;15.30;83.70;;;;;;4935733;29;20497;-73
2021/09/30 11:34:31;;;;;;;2.22;0.40;;;15.40;83.50;;;;;;4935922;29;20047;-73
2021/09/30 11:37:13;;;;;;;0.82;0.20;;;15.50;83.30;;;;;;4935716;29;20146;-73
2021/09/30 11:39:41;;;;;;;1.67;0.38;;;15.50;83.30;;;;;;4902332;29;20075;-72
2021/09/30 11:42:09;;;;;;;1.27;0.22;;;15.50;83.30;;;;;;4935276;29;20063;-73
2021/09/30 11:44:36;;;;;;;0.85;0.25;;;15.60;83.50;;;;;;4935736;29;20048;-73
2021/09/30 11:47:04;;;;;;;0.45;0.20;;;15.60;83.40;;;;;;4935623;29;20054;-73
2021/09/30 11:49:42;;;;;;;2.40;0.22;;;15.70;83.40;;;;;;4902159;29;20059;-73
2021/09/30 11:52:13;;;;;;;1.98;0.25;;;15.80;83.30;;;;;;4935498;29;20054;-72
2021/09/30 11:54:40;;;;;;;0.28;0.20;;;15.90;82.90;;;;;;4936024;29;20066;-73
2021/09/30 11:57:18;;;;;;;1.13;0.20;;;16.00;82.80;;;;;;4935133;29;20435;-73
2021/09/30 11:59:46;;;;;;;0.60;0.10;;;16.10;82.30;;;;;;4933779;29;20075;-73
2021/09/30 12:02:14;;;;;;;3.03;0.47;;;16.20;81.90;;;;;;4917913;29;20402;-73
2021/09/30 12:04:52;;;;;;;0.68;0.20;;;16.30;81.80;;;;;;4934596;29;20067;-73
2021/09/30 12:07:26;;;;;;;0.82;0.20;;;16.40;81.40;;;;;;4935243;29;20051;-73
2021/09/30 12:09:57;;;;;;;0.43;0.10;;;16.60;81.30;;;;;;4935536;29;20401;-72
2021/09/30 12:12:35;;;;;;;0.57;0.10;;;16.90;80.10;;;;;;4937279;29;20402;-73
2021/09/30 12:15:05;;;;;;;0.30;0.10;;;16.90;80.30;;;;;;4938799;29;20052;-74
2021/09/30 12:17:35;;;;;;;0.40;0.10;;;17.20;79.80;;;;;;4937871;29;20067;-73
2021/09/30 12:20:12;;;;;;;0.90;0.25;;;17.50;79.10;;;;;;4938302;29;20405;-74
2021/09/30 12:22:50;;;;;;;0.43;0.10;;;17.80;78.40;;;;;;4937796;29;20516;-73
2021/09/30 12:25:26;;;;;;;0.50;0.17;;;17.80;77.60;;;;;;4920889;29;20502;-73
2021/09/30 12:27:57;;;;;;;0.10;0.10;;;17.60;77.60;;;;;;4938786;29;20047;-73
2021/09/30 12:30:28;;;;;;;0.60;0.20;;;17.40;78.30;;;;;;4922184;29;20494;-73
2021/09/30 12:33:01;;;;;;;0.63;0.10;;;17.20;79.70;;;;;;4939016;29;20055;-73
2021/09/30 12:35:34;;;;;;;0.43;0.10;;;17.10;80.60;;;;;;4938568;29;20048;-73
2021/09/30 12:38:05;;;;;;;0.28;0.10;;;17.00;81.40;;;;;;4937376;29;20063;-73
2021/09/30 12:40:43;;;;;;;0.43;0.10;;;17.00;81.40;;;;;;4921634;29;20044;-73
2021/09/30 12:43:17;;;;;;;0.20;0.10;;;16.90;81.40;;;;;;4920996;29;20067;-73
2021/09/30 12:46:00;;;;;;;0.50;0.10;;;16.80;81.60;;;;;;4937250;29;20063;-73
2021/09/30 12:48:33;;;;;;;0.47;0.20;;;16.80;82.20;;;;;;4938494;29;20047;-73
2021/09/30 12:51:13;;;;;;;2.10;0.20;;;16.70;82.80;;;;;;4938295;29;20777;-72
2021/09/30 12:53:49;;;;;;;1.17;0.30;;;16.60;83.00;;;;;;4938257;29;20063;-73
2021/09/30 12:56:22;;;;;;;0.98;0.20;;;16.60;83.10;;;;;;4937164;29;20054;-73
2021/09/30 12:58:52;;;;;;;0.30;0.20;;;16.70;83.00;;;;;;4904433;29;20055;-72
2021/09/30 13:01:30;;;;;;;0.57;0.30;;;16.70;82.90;;;;;;4937256;29;20063;-73
2021/09/30 13:04:07;;;;;;;0.20;0.10;;;16.70;82.90;;;;;;4938646;29;20051;-73
2021/09/30 13:06:36;;;;;;;0.95;0.20;;;16.70;82.80;;;;;;4921229;29;20043;-73
2021/09/30 13:09:05;;;;;;;1.35;0.20;;;16.80;82.70;;;;;;4937639;29;20498;-73
2021/09/30 13:11:35;;;;;;;0.10;0.10;;;16.80;82.50;;;;;;4937087;29;20418;-73
2021/09/30 13:14:15;;;;;;;0.10;0.10;;;16.80;82.50;;;;;;4939752;29;20048;-73
2021/09/30 13:16:48;;;;;;;0.30;0.20;;;16.90;82.30;;;;;;4938776;29;20052;-73
2021/09/30 13:19:17;;;;;;;0.32;0.10;;;17.00;82.20;;;;;;4936184;29;20055;-73
2021/09/30 13:22:02;;;;;;;0.43;0.10;;;17.00;81.60;;;;;;4920710;29;20047;-73
2021/09/30 13:24:34;;;;;;;0.32;0.10;;;17.00;81.80;;;;;;4935599;29;20047;-73
2021/09/30 13:27:05;;;;;;;1.52;0.20;;;17.10;81.40;;;;;;4937903;29;20470;-73
2021/09/30 13:29:46;;;;;;;0.35;0.32;;;17.20;81.80;;;;;;4937642;29;20046;-72
2021/09/30 13:32:15;;;;;;;0.50;0.10;;;17.10;82.40;;;;;;4937531;29;20405;-73
2021/09/30 13:34:44;;;;;;;0.20;0.00;;;17.10;83.00;;;;;;4920154;29;20044;-73
2021/09/30 13:37:12;;;;;;;0.35;0.20;;;17.10;83.00;;;;;;4935607;29;20050;-73
2021/09/30 13:39:40;;;;;;;0.10;0.10;;;17.10;83.20;;;;;;4920369;29;20063;-74
2021/09/30 13:42:07;;;;;;;0.10;0.10;;;17.00;83.00;;;;;;4936827;29;20454;-76
2021/09/30 13:44:36;;;;;;;0.30;0.10;;;17.00;83.10;;;;;;4919992;29;20056;-75
2021/09/30 13:47:04;;;;;;;0.10;0.10;;;17.00;83.50;;;;;;4935941;29;20078;-73
2021/09/30 13:49:32;;;;;;;0.32;0.13;;;16.90;84.10;;;;;;4919208;29;20509;-73
2021/09/30 13:52:03;;;;;;;1.52;0.10;;;16.80;84.50;;;;;;4937424;29;20058;-74
2021/09/30 13:54:31;;;;;;;0.20;0.10;;;16.70;85.10;;;;;;4936287;29;20090;-73
2021/09/30 13:56:58;;;;;;;0.10;0.10;;;16.60;85.30;;;;;;4919764;29;20106;-73
2021/09/30 13:59:26;;;;;;;1.08;0.40;;;16.50;85.70;;;;;;4936680;29;20059;-73
2021/09/30 14:02:13;;;;;;;0.40;0.20;;;16.40;85.90;;;;;;4923110;29;20056;-73
2021/09/30 14:04:41;;;;;;;2.20;0.40;;;16.40;86.50;;;;;;4935128;29;20056;-73
2021/09/30 14:07:09;;;;;;;0.80;0.40;;;16.30;86.90;;;;;;4936765;29;20051;-73
2021/09/30 14:09:37;;;;;;;0.28;0.28;;;16.30;87.10;;;;;;4936470;29;20348;-73
2021/09/30 14:12:06;;;;;;;1.40;0.60;;;16.20;87.50;;;;;;4935781;29;20056;-73
2021/09/30 14:14:35;;;;;;;1.15;0.70;;;16.10;88.10;;;;;;4936192;29;20047;-73
2021/09/30 14:17:03;;;;;;;0.82;0.50;;;16.10;88.20;;;;;;4935817;29;20064;-73
2021/09/30 14:19:31;;;;;;;0.28;0.25;;;16.00;88.50;;;;;;4918221;29;20429;-73
2021/09/30 14:21:59;;;;;;;1.27;0.45;;;16.00;88.80;;;;;;4936174;29;20058;-73
2021/09/30 14:28:59;;;;;;;0.35;0.20;;;15.90;89.10;;;;;;4918097;29;20347;-75
2021/09/30 14:31:27;;;;;;;1.08;0.30;;;15.90;89.20;;;;;;4935972;29;20062;-75
2021/09/30 14:33:54;;;;;;;0.17;0.10;;;15.90;89.20;;;;;;4934242;29;20058;-74
2021/09/30 14:36:22;;;;;;;1.00;0.40;;;15.90;89.30;;;;;;4934867;29;20055;-73
2021/09/30 14:38:50;;;;;;;0.20;0.20;;;16.00;89.30;;;;;;4936180;29;20055;-73
2021/09/30 14:41:18;;;;;;;0.20;0.17;;;15.90;89.30;;;;;;4935914;29;20497;-73
2021/09/30 14:43:46;;;;;;;0.40;0.20;;;16.00;89.40;;;;;;4935701;29;20074;-73
2021/09/30 14:46:14;;;;;;;0.85;0.30;;;15.90;89.40;;;;;;4934211;29;20046;-72
2021/09/30 14:53:16;;;;;;;0.32;0.20;;;15.90;89.50;;;;;;4935500;29;20119;-73
2021/09/30 14:55:44;;;;;;;0.47;0.30;;;15.90;89.60;;;;;;4935758;29;20055;-71
2021/09/30 14:58:12;;;;;;;0.82;0.25;;;15.90;89.80;;;;;;4935845;29;20474;-71
2021/09/30 15:00:39;;;;;;;0.60;0.20;;;15.90;89.90;;;;;;4935250;29;20123;-71
2021/09/30 15:03:07;;;;;;;0.45;0.20;;;15.80;90.00;;;;;;4935969;29;20048;-73
2021/09/30 15:05:35;;;;;;;0.47;0.13;;;15.80;90.20;;;;;;4918890;29;20402;-71
2021/09/30 15:08:03;;;;;;;1.25;0.30;;;15.80;90.40;;;;;;4935631;29;20048;-70
2021/09/30 15:10:30;;;;;;;1.75;0.30;;;15.80;90.30;;;;;;4917745;29;20052;-66
2021/09/30 15:12:58;;;;;;;1.65;0.28;;;15.80;90.50;;;;;;4935543;29;20054;-66
2021/09/30 15:15:27;;;;;;;0.90;0.20;;;15.70;90.70;;;;;;4935689;29;20047;-66
2021/09/30 15:18:00;;;;;;;1.00;0.20;;;15.70;90.90;;;;;;4919275;29;20040;-67
2021/09/30 15:23:05;;;;;;;0.32;0.20;;;15.50;91.30;;;;;;4935730;29;20051;-66
2021/09/30 15:25:37;;;;;;;0.30;0.30;;;15.50;91.50;;;;;;4918902;29;20075;-66
2021/09/30 15:28:07;;;;;;;0.50;0.50;;;15.40;91.70;;;;;;4935234;29;20054;-66
2021/09/30 15:30:35;;;;;;;1.05;0.20;;;15.40;91.90;;;;;;4936149;29;20044;-66
2021/09/30 15:33:03;;;;;;;0.65;0.30;;;15.40;92.10;;;;;;4919048;29;20052;-66
2021/09/30 15:35:30;;;;;;;0.30;0.28;;;15.40;92.10;;;;;;4918509;29;20056;-67
2021/09/30 15:38:00;;;;;;;0.68;0.10;;;15.40;92.20;;;;;;4935138;29;20050;-68
2021/09/30 15:40:28;;;;;;;0.45;0.10;;;15.50;92.20;;;;;;4918469;29;20059;-70
2021/09/30 15:42:57;;;;;;;1.17;0.40;;;15.60;91.40;;;;;;4934284;29;20052;-71
2021/09/30 15:45:26;;;;;;;0.38;0.10;;;15.70;91.20;;;;;;4918329;29;20051;-71
2021/09/30 15:47:55;;;;;;;0.28;0.10;;;15.80;90.50;;;;;;4937872;29;20052;-72
2021/09/30 15:50:24;;;;;;;0.20;0.20;;;15.80;89.90;;;;;;4922732;29;20401;-70
2021/09/30 15:52:52;;;;;;;2.10;0.40;;;15.80;89.70;;;;;;4938247;29;20082;-70
2021/09/30 15:55:20;;;;;;;0.08;0.08;;;15.80;88.80;;;;;;4939038;29;20500;-71
2021/09/30 15:57:48;;;;;;;0.70;0.22;;;15.80;88.50;;;;;;4937937;29;20078;-71
2021/09/30 16:00:16;;;;;;;0.60;0.20;;;15.80;88.00;;;;;;4938181;29;20497;-70
2021/09/30 16:02:44;;;;;;;1.02;0.40;;;15.80;87.40;;;;;;4938385;29;20056;-71
2021/09/30 16:05:12;;;;;;;1.65;0.15;;;15.80;87.30;;;;;;4922931;29;20067;-71
2021/09/30 16:07:39;;;;;;;0.40;0.22;;;15.80;86.80;;;;;;4938915;29;20056;-72
2021/09/30 16:10:07;;;;;;;2.08;0.40;;;15.80;86.40;;;;;;4939322;29;20043;-72
2021/09/30 16:12:35;;;;;;;0.90;0.30;;;15.70;86.10;;;;;;4921488;29;20486;-72
2021/09/30 16:15:03;;;;;;;2.13;0.50;;;15.70;85.80;;;;;;4921815;29;20059;-72
2021/09/30 16:17:31;;;;;;;1.50;0.28;;;15.70;85.50;;;;;;4938649;29;20055;-71
2021/09/30 16:19:59;;;;;;;2.30;0.52;;;15.60;85.60;;;;;;4938697;29;20494;-71
2021/09/30 16:22:28;;;;;;;1.13;0.35;;;15.60;84.80;;;;;;4921269;29;20047;-72
2021/09/30 16:24:56;;;;;;;3.33;0.70;;;15.60;84.60;;;;;;4937428;29;20060;-72
2021/09/30 16:27:26;;;;;;;3.00;0.63;;;15.50;84.10;;;;;;4938123;29;20052;-71
2021/09/30 16:29:54;;;;;;;1.60;0.47;;;15.50;84.30;;;;;;4939354;29;20397;-72
2021/09/30 16:32:22;;;;;;;3.47;0.57;;;15.40;84.30;;;;;;4938254;29;20156;-72
2021/09/30 16:34:51;;;;;;;3.85;0.70;;;15.30;84.40;;;;;;4921708;29;20051;-73
2021/09/30 16:37:19;;;;;;;3.53;0.60;;;15.30;84.20;;;;;;4938179;29;20407;-73
2021/09/30 16:39:47;;;;;;;5.50;0.80;;;15.30;84.30;;;;;;4939064;29;20052;-73
2021/09/30 16:42:16;;;;;;;3.88;0.68;;;15.20;84.50;;;;;;4937505;29;20052;-73
2021/09/30 16:44:44;;;;;;;3.15;0.77;;;15.20;84.60;;;;;;4938701;29;20058;-74
2021/09/30 16:47:12;;;;;;;4.70;0.73;;;15.20;84.70;;;;;;4939019;29;20052;-73
2021/09/30 16:49:40;;;;;;;4.90;0.70;;;15.10;84.50;;;;;;4938128;29;20063;-73